sensor_id;sensor_type;location;lat;lon;timestamp;pressure;altitude;pressure_sealevel;temperature;humidity
60246;BME280;46107;53.356;-1.524;2023-03-29T00:00:49;98298.22;;;7.61;85.30
60246;BME280;46107;53.356;-1.524;2023-03-29T00:03:17;98295.23;;;7.73;84.45
60246;BME280;46107;53.356;-1.524;2023-03-29T00:05:45;98298.52;;;7.56;86.89
60246;BME280;46107;53.356;-1.524;2023-03-29T00:08:12;98298.27;;;6.84;88.42
60246;BME280;46107;53.356;-1.524;2023-03-29T00:10:39;98300.91;;;7.73;85.06
60246;BME280;46107;53.356;-1.524;2023-03-29T00:13:07;98307.58;;;8.68;80.52
60246;BME280;46107;53.356;-1.524;2023-03-29T00:15:35;98306.07;;;8.17;82.78
60246;BME280;46107;53.356;-1.524;2023-03-29T00:18:03;98305.41;;;8.84;81.34
60246;BME280;46107;53.356;-1.524;2023-03-29T00:20:31;98304.69;;;8.35;84.33
60246;BME280;46107;53.356;-1.524;2023-03-29T00:22:58;98310.63;;;7.75;85.23
60246;BME280;46107;53.356;-1.524;2023-03-29T00:25:25;98314.86;;;7.83;86.92
60246;BME280;46107;53.356;-1.524;2023-03-29T00:27:53;98309.18;;;8.02;85.30
60246;BME280;46107;53.356;-1.524;2023-03-29T00:30:21;98310.53;;;7.67;85.91
60246;BME280;46107;53.356;-1.524;2023-03-29T00:32:49;98322.21;;;8.26;84.06
60246;BME280;46107;53.356;-1.524;2023-03-29T00:35:17;98321.83;;;7.74;84.42
60246;BME280;46107;53.356;-1.524;2023-03-29T00:37:44;98318.11;;;8.00;84.06
60246;BME280;46107;53.356;-1.524;2023-03-29T00:40:13;98318.21;;;8.49;82.95
60246;BME280;46107;53.356;-1.524;2023-03-29T00:42:43;98311.30;;;8.74;80.26
60246;BME280;46107;53.356;-1.524;2023-03-29T00:45:17;98312.42;;;8.19;81.95
60246;BME280;46107;53.356;-1.524;2023-03-29T00:47:48;98312.64;;;7.86;82.82
60246;BME280;46107;53.356;-1.524;2023-03-29T00:50:20;98313.93;;;8.62;80.44
60246;BME280;46107;53.356;-1.524;2023-03-29T00:52:53;98313.26;;;8.70;79.32
60246;BME280;46107;53.356;-1.524;2023-03-29T00:55:25;98316.16;;;8.45;81.17
60246;BME280;46107;53.356;-1.524;2023-03-29T00:57:55;98316.57;;;8.35;79.64
60246;BME280;46107;53.356;-1.524;2023-03-29T01:00:28;98310.19;;;8.49;78.35
60246;BME280;46107;53.356;-1.524;2023-03-29T01:02:58;98308.60;;;9.07;77.62
60246;BME280;46107;53.356;-1.524;2023-03-29T01:05:31;98314.83;;;9.02;77.59
60246;BME280;46107;53.356;-1.524;2023-03-29T01:08:03;98309.84;;;8.88;78.01
60246;BME280;46107;53.356;-1.524;2023-03-29T01:10:37;98301.06;;;9.30;76.00
60246;BME280;46107;53.356;-1.524;2023-03-29T01:13:09;98307.97;;;8.68;77.29
60246;BME280;46107;53.356;-1.524;2023-03-29T01:15:40;98295.94;;;9.72;75.15
60246;BME280;46107;53.356;-1.524;2023-03-29T01:18:11;98300.22;;;8.93;76.47
60246;BME280;46107;53.356;-1.524;2023-03-29T01:20:49;98302.71;;;9.84;73.26
60246;BME280;46107;53.356;-1.524;2023-03-29T01:23:32;98299.92;;;9.46;73.60
60246;BME280;46107;53.356;-1.524;2023-03-29T01:26:13;98293.80;;;9.83;74.34
60246;BME280;46107;53.356;-1.524;2023-03-29T01:28:49;98290.17;;;8.99;73.64
60246;BME280;46107;53.356;-1.524;2023-03-29T01:31:20;98282.09;;;9.40;73.24
60246;BME280;46107;53.356;-1.524;2023-03-29T01:33:52;98278.81;;;9.88;71.96
60246;BME280;46107;53.356;-1.524;2023-03-29T01:36:24;98279.26;;;9.91;71.18
60246;BME280;46107;53.356;-1.524;2023-03-29T01:38:56;98280.24;;;9.82;71.01
60246;BME280;46107;53.356;-1.524;2023-03-29T01:41:36;98274.47;;;9.53;71.44
60246;BME280;46107;53.356;-1.524;2023-03-29T01:44:10;98273.64;;;10.02;69.83
60246;BME280;46107;53.356;-1.524;2023-03-29T01:46:45;98271.97;;;9.42;71.90
60246;BME280;46107;53.356;-1.524;2023-03-29T01:49:17;98277.74;;;8.61;74.16
60246;BME280;46107;53.356;-1.524;2023-03-29T01:51:52;98271.27;;;9.22;73.57
60246;BME280;46107;53.356;-1.524;2023-03-29T01:54:24;98264.37;;;9.29;72.30
60246;BME280;46107;53.356;-1.524;2023-03-29T01:56:55;98260.85;;;8.59;74.90
60246;BME280;46107;53.356;-1.524;2023-03-29T01:59:26;98253.34;;;8.79;75.43
60246;BME280;46107;53.356;-1.524;2023-03-29T02:01:57;98252.58;;;8.66;74.80
60246;BME280;46107;53.356;-1.524;2023-03-29T02:04:29;98257.08;;;7.54;80.68
60246;BME280;46107;53.356;-1.524;2023-03-29T02:06:59;98249.39;;;7.47;79.46
60246;BME280;46107;53.356;-1.524;2023-03-29T02:09:27;98245.59;;;8.03;78.31
60246;BME280;46107;53.356;-1.524;2023-03-29T02:11:59;98230.45;;;9.07;74.77
60246;BME280;46107;53.356;-1.524;2023-03-29T02:14:27;98234.44;;;7.59;78.65
60246;BME280;46107;53.356;-1.524;2023-03-29T02:16:54;98228.81;;;8.64;76.68
60246;BME280;46107;53.356;-1.524;2023-03-29T02:19:23;98234.27;;;8.41;77.34
60246;BME280;46107;53.356;-1.524;2023-03-29T02:21:56;98229.41;;;8.83;76.16
60246;BME280;46107;53.356;-1.524;2023-03-29T02:24:25;98233.43;;;8.35;78.50
60246;BME280;46107;53.356;-1.524;2023-03-29T02:26:53;98234.89;;;8.03;79.90
60246;BME280;46107;53.356;-1.524;2023-03-29T02:29:21;98240.24;;;7.92;79.85
60246;BME280;46107;53.356;-1.524;2023-03-29T02:31:52;98243.46;;;7.79;81.88
60246;BME280;46107;53.356;-1.524;2023-03-29T02:34:24;98242.11;;;8.66;79.59
60246;BME280;46107;53.356;-1.524;2023-03-29T02:36:56;98238.05;;;8.61;79.24
60246;BME280;46107;53.356;-1.524;2023-03-29T02:39:26;98233.84;;;8.15;81.94
60246;BME280;46107;53.356;-1.524;2023-03-29T02:41:56;98230.12;;;8.31;79.56
60246;BME280;46107;53.356;-1.524;2023-03-29T02:44:27;98228.25;;;7.82;81.72
60246;BME280;46107;53.356;-1.524;2023-03-29T02:46:59;98227.75;;;8.42;78.27
60246;BME280;46107;53.356;-1.524;2023-03-29T02:49:28;98224.97;;;8.54;79.40
60246;BME280;46107;53.356;-1.524;2023-03-29T02:51:59;98219.45;;;8.97;75.84
60246;BME280;46107;53.356;-1.524;2023-03-29T02:54:30;98217.39;;;9.01;75.76
60246;BME280;46107;53.356;-1.524;2023-03-29T02:56:59;98220.43;;;8.61;78.03
60246;BME280;46107;53.356;-1.524;2023-03-29T02:59:30;98201.88;;;8.53;78.57
60246;BME280;46107;53.356;-1.524;2023-03-29T03:01:57;98206.26;;;8.25;79.87
60246;BME280;46107;53.356;-1.524;2023-03-29T03:04:25;98202.56;;;8.04;80.71
60246;BME280;46107;53.356;-1.524;2023-03-29T03:06:53;98212.71;;;8.44;80.69
60246;BME280;46107;53.356;-1.524;2023-03-29T03:09:21;98207.70;;;8.50;78.75
60246;BME280;46107;53.356;-1.524;2023-03-29T03:11:48;98204.18;;;9.50;76.35
60246;BME280;46107;53.356;-1.524;2023-03-29T03:14:16;98206.19;;;8.17;80.56
60246;BME280;46107;53.356;-1.524;2023-03-29T03:16:43;98213.54;;;7.96;81.33
60246;BME280;46107;53.356;-1.524;2023-03-29T03:19:10;98211.94;;;9.23;76.65
60246;BME280;46107;53.356;-1.524;2023-03-29T03:21:39;98214.40;;;8.83;76.73
60246;BME280;46107;53.356;-1.524;2023-03-29T03:24:06;98218.21;;;9.15;76.93
60246;BME280;46107;53.356;-1.524;2023-03-29T03:26:34;98226.92;;;8.65;78.25
60246;BME280;46107;53.356;-1.524;2023-03-29T03:29:02;98226.62;;;8.59;76.93
60246;BME280;46107;53.356;-1.524;2023-03-29T03:31:30;98221.54;;;9.09;76.88
60246;BME280;46107;53.356;-1.524;2023-03-29T03:33:57;98221.84;;;8.39;76.82
60246;BME280;46107;53.356;-1.524;2023-03-29T03:36:24;98219.13;;;8.92;76.44
60246;BME280;46107;53.356;-1.524;2023-03-29T03:38:52;98226.58;;;8.24;78.57
60246;BME280;46107;53.356;-1.524;2023-03-29T03:41:19;98222.30;;;9.07;75.93
60246;BME280;46107;53.356;-1.524;2023-03-29T03:43:47;98221.05;;;9.19;75.81
60246;BME280;46107;53.356;-1.524;2023-03-29T03:46:15;98213.39;;;8.68;77.85
60246;BME280;46107;53.356;-1.524;2023-03-29T03:48:43;98204.04;;;8.49;76.98
60246;BME280;46107;53.356;-1.524;2023-03-29T03:51:12;98203.11;;;9.12;78.59
60246;BME280;46107;53.356;-1.524;2023-03-29T03:53:40;98203.32;;;9.48;75.82
60246;BME280;46107;53.356;-1.524;2023-03-29T03:56:08;98199.96;;;9.53;75.34
60246;BME280;46107;53.356;-1.524;2023-03-29T03:58:37;98197.67;;;9.40;74.40
60246;BME280;46107;53.356;-1.524;2023-03-29T04:01:05;98188.58;;;8.74;77.26
60246;BME280;46107;53.356;-1.524;2023-03-29T04:03:32;98184.58;;;8.57;77.30
60246;BME280;46107;53.356;-1.524;2023-03-29T04:06:01;98187.67;;;8.31;79.66
60246;BME280;46107;53.356;-1.524;2023-03-29T04:08:28;98187.96;;;7.70;82.34
60246;BME280;46107;53.356;-1.524;2023-03-29T04:10:57;98181.46;;;8.47;78.79
60246;BME280;46107;53.356;-1.524;2023-03-29T04:13:26;98176.65;;;9.12;77.25
60246;BME280;46107;53.356;-1.524;2023-03-29T04:15:54;98175.07;;;10.03;74.32
60246;BME280;46107;53.356;-1.524;2023-03-29T04:18:22;98178.10;;;9.27;75.46
60246;BME280;46107;53.356;-1.524;2023-03-29T04:20:49;98180.86;;;9.02;76.26
60246;BME280;46107;53.356;-1.524;2023-03-29T04:23:17;98176.72;;;9.76;73.72
60246;BME280;46107;53.356;-1.524;2023-03-29T04:25:44;98175.10;;;10.24;71.47
60246;BME280;46107;53.356;-1.524;2023-03-29T04:28:12;98167.60;;;9.80;73.68
60246;BME280;46107;53.356;-1.524;2023-03-29T04:30:40;98156.35;;;9.45;73.94
60246;BME280;46107;53.356;-1.524;2023-03-29T04:33:07;98151.12;;;8.89;76.66
60246;BME280;46107;53.356;-1.524;2023-03-29T04:35:35;98152.11;;;10.06;74.06
60246;BME280;46107;53.356;-1.524;2023-03-29T04:38:03;98155.56;;;9.09;76.13
60246;BME280;46107;53.356;-1.524;2023-03-29T04:40:30;98165.69;;;7.55;86.70
60246;BME280;46107;53.356;-1.524;2023-03-29T04:42:57;98156.91;;;9.17;78.57
60246;BME280;46107;53.356;-1.524;2023-03-29T04:45:25;98150.67;;;9.35;76.14
60246;BME280;46107;53.356;-1.524;2023-03-29T04:47:55;98151.29;;;9.21;76.55
60246;BME280;46107;53.356;-1.524;2023-03-29T04:50:22;98147.05;;;9.93;74.23
60246;BME280;46107;53.356;-1.524;2023-03-29T04:52:50;98140.82;;;9.36;74.97
60246;BME280;46107;53.356;-1.524;2023-03-29T04:55:18;98140.95;;;9.13;76.94
60246;BME280;46107;53.356;-1.524;2023-03-29T04:57:46;98148.70;;;9.92;73.16
60246;BME280;46107;53.356;-1.524;2023-03-29T05:00:15;98145.93;;;10.12;72.35
60246;BME280;46107;53.356;-1.524;2023-03-29T05:02:43;98148.68;;;10.00;72.37
60246;BME280;46107;53.356;-1.524;2023-03-29T05:05:11;98154.26;;;9.69;71.38
60246;BME280;46107;53.356;-1.524;2023-03-29T05:07:39;98147.45;;;10.10;71.79
60246;BME280;46107;53.356;-1.524;2023-03-29T05:10:08;98140.34;;;10.21;69.89
60246;BME280;46107;53.356;-1.524;2023-03-29T05:12:36;98136.32;;;10.67;69.56
60246;BME280;46107;53.356;-1.524;2023-03-29T05:15:04;98138.73;;;9.63;70.71
60246;BME280;46107;53.356;-1.524;2023-03-29T05:17:32;98148.57;;;9.63;72.63
60246;BME280;46107;53.356;-1.524;2023-03-29T05:20:00;98154.66;;;9.69;72.26
60246;BME280;46107;53.356;-1.524;2023-03-29T05:22:28;98149.34;;;8.86;77.70
60246;BME280;46107;53.356;-1.524;2023-03-29T05:24:55;98160.30;;;8.58;76.88
60246;BME280;46107;53.356;-1.524;2023-03-29T05:27:23;98157.11;;;8.94;76.10
60246;BME280;46107;53.356;-1.524;2023-03-29T05:29:51;98166.56;;;9.20;75.95
60246;BME280;46107;53.356;-1.524;2023-03-29T05:32:19;98160.37;;;9.87;73.88
60246;BME280;46107;53.356;-1.524;2023-03-29T05:34:46;98160.48;;;9.74;74.55
60246;BME280;46107;53.356;-1.524;2023-03-29T05:37:14;98161.39;;;9.90;74.37
60246;BME280;46107;53.356;-1.524;2023-03-29T05:39:42;98161.18;;;9.01;77.08
60246;BME280;46107;53.356;-1.524;2023-03-29T05:42:10;98158.50;;;8.53;79.42
60246;BME280;46107;53.356;-1.524;2023-03-29T05:44:37;98147.64;;;9.57;75.36
60246;BME280;46107;53.356;-1.524;2023-03-29T05:47:06;98143.58;;;8.66;79.19
60246;BME280;46107;53.356;-1.524;2023-03-29T05:49:33;98145.08;;;8.55;77.43
60246;BME280;46107;53.356;-1.524;2023-03-29T05:52:01;98144.28;;;8.19;80.42
60246;BME280;46107;53.356;-1.524;2023-03-29T05:54:28;98145.80;;;7.47;82.92
60246;BME280;46107;53.356;-1.524;2023-03-29T05:56:55;98140.51;;;8.46;80.64
60246;BME280;46107;53.356;-1.524;2023-03-29T05:59:23;98143.41;;;9.20;77.93
60246;BME280;46107;53.356;-1.524;2023-03-29T06:01:50;98155.65;;;8.46;81.62
60246;BME280;46107;53.356;-1.524;2023-03-29T06:04:17;98158.22;;;9.54;76.71
60246;BME280;46107;53.356;-1.524;2023-03-29T06:06:45;98151.88;;;8.52;79.12
60246;BME280;46107;53.356;-1.524;2023-03-29T06:09:13;98149.99;;;9.73;77.10
60246;BME280;46107;53.356;-1.524;2023-03-29T06:11:41;98151.38;;;10.18;73.15
60246;BME280;46107;53.356;-1.524;2023-03-29T06:14:09;98148.55;;;10.06;74.19
60246;BME280;46107;53.356;-1.524;2023-03-29T06:16:37;98145.03;;;9.29;74.31
60246;BME280;46107;53.356;-1.524;2023-03-29T06:19:04;98140.76;;;8.85;77.04
60246;BME280;46107;53.356;-1.524;2023-03-29T06:21:32;98137.68;;;8.13;80.34
60246;BME280;46107;53.356;-1.524;2023-03-29T06:24:00;98137.38;;;8.97;78.72
60246;BME280;46107;53.356;-1.524;2023-03-29T06:26:27;98130.55;;;9.76;75.24
60246;BME280;46107;53.356;-1.524;2023-03-29T06:28:55;98132.16;;;9.42;77.12
60246;BME280;46107;53.356;-1.524;2023-03-29T06:31:24;98133.44;;;8.90;80.28
60246;BME280;46107;53.356;-1.524;2023-03-29T06:33:52;98124.98;;;9.74;77.74
60246;BME280;46107;53.356;-1.524;2023-03-29T06:36:19;98121.12;;;8.98;80.02
60246;BME280;46107;53.356;-1.524;2023-03-29T06:38:47;98115.80;;;9.33;78.99
60246;BME280;46107;53.356;-1.524;2023-03-29T06:41:15;98116.98;;;9.68;78.25
60246;BME280;46107;53.356;-1.524;2023-03-29T06:43:42;98118.55;;;10.15;76.04
60246;BME280;46107;53.356;-1.524;2023-03-29T06:46:10;98115.80;;;9.16;79.81
60246;BME280;46107;53.356;-1.524;2023-03-29T06:48:38;98114.12;;;8.52;82.25
60246;BME280;46107;53.356;-1.524;2023-03-29T06:51:06;98113.90;;;8.56;82.55
60246;BME280;46107;53.356;-1.524;2023-03-29T06:53:34;98112.68;;;8.46;83.65
60246;BME280;46107;53.356;-1.524;2023-03-29T06:56:02;98121.09;;;9.05;82.14
60246;BME280;46107;53.356;-1.524;2023-03-29T06:58:30;98125.58;;;7.33;86.48
60246;BME280;46107;53.356;-1.524;2023-03-29T07:01:00;98117.34;;;9.24;84.69
60246;BME280;46107;53.356;-1.524;2023-03-29T07:03:27;98118.00;;;8.10;85.58
60246;BME280;46107;53.356;-1.524;2023-03-29T07:05:59;98119.68;;;8.61;86.46
60246;BME280;46107;53.356;-1.524;2023-03-29T07:08:28;98117.57;;;9.20;83.08
60246;BME280;46107;53.356;-1.524;2023-03-29T07:10:56;98113.92;;;8.20;87.45
60246;BME280;46107;53.356;-1.524;2023-03-29T07:13:24;98110.53;;;8.60;85.23
60246;BME280;46107;53.356;-1.524;2023-03-29T07:15:52;98113.99;;;9.19;84.48
60246;BME280;46107;53.356;-1.524;2023-03-29T07:18:20;98111.65;;;9.23;83.68
60246;BME280;46107;53.356;-1.524;2023-03-29T07:20:48;98112.68;;;9.68;82.61
60246;BME280;46107;53.356;-1.524;2023-03-29T07:23:16;98111.15;;;9.06;82.83
60246;BME280;46107;53.356;-1.524;2023-03-29T07:25:44;98112.82;;;8.64;86.96
60246;BME280;46107;53.356;-1.524;2023-03-29T07:28:11;98114.62;;;9.10;85.60
60246;BME280;46107;53.356;-1.524;2023-03-29T07:30:39;98110.30;;;8.94;85.20
60246;BME280;46107;53.356;-1.524;2023-03-29T07:33:07;98105.83;;;9.20;84.99
60246;BME280;46107;53.356;-1.524;2023-03-29T07:35:34;98100.64;;;8.34;87.37
60246;BME280;46107;53.356;-1.524;2023-03-29T07:38:02;98091.18;;;8.92;84.28
60246;BME280;46107;53.356;-1.524;2023-03-29T07:40:29;98087.30;;;8.30;88.70
60246;BME280;46107;53.356;-1.524;2023-03-29T07:42:57;98090.31;;;8.76;86.69
60246;BME280;46107;53.356;-1.524;2023-03-29T07:45:25;98082.08;;;9.09;85.67
60246;BME280;46107;53.356;-1.524;2023-03-29T07:47:54;98078.13;;;9.15;83.65
60246;BME280;46107;53.356;-1.524;2023-03-29T07:50:22;98084.02;;;9.29;85.70
60246;BME280;46107;53.356;-1.524;2023-03-29T07:52:50;98085.45;;;9.30;83.92
60246;BME280;46107;53.356;-1.524;2023-03-29T07:55:19;98086.95;;;9.80;80.89
60246;BME280;46107;53.356;-1.524;2023-03-29T07:57:48;98087.69;;;9.91;80.72
60246;BME280;46107;53.356;-1.524;2023-03-29T08:00:16;98062.91;;;8.84;84.20
60246;BME280;46107;53.356;-1.524;2023-03-29T08:02:45;98057.94;;;9.21;84.59
60246;BME280;46107;53.356;-1.524;2023-03-29T08:05:14;98047.28;;;9.12;84.46
60246;BME280;46107;53.356;-1.524;2023-03-29T08:07:43;98047.13;;;9.66;82.99
60246;BME280;46107;53.356;-1.524;2023-03-29T08:10:13;98055.47;;;9.36;83.04
60246;BME280;46107;53.356;-1.524;2023-03-29T08:12:44;98052.86;;;9.68;82.70
60246;BME280;46107;53.356;-1.524;2023-03-29T08:15:13;98046.68;;;9.24;84.07
60246;BME280;46107;53.356;-1.524;2023-03-29T08:17:41;98044.91;;;9.36;84.49
60246;BME280;46107;53.356;-1.524;2023-03-29T08:20:12;98037.35;;;9.81;81.85
60246;BME280;46107;53.356;-1.524;2023-03-29T08:22:40;98039.25;;;10.35;80.08
60246;BME280;46107;53.356;-1.524;2023-03-29T08:25:08;98048.34;;;9.43;82.12
60246;BME280;46107;53.356;-1.524;2023-03-29T08:27:36;98053.51;;;8.95;84.19
60246;BME280;46107;53.356;-1.524;2023-03-29T08:30:06;98049.62;;;9.73;81.89
60246;BME280;46107;53.356;-1.524;2023-03-29T08:32:34;98050.42;;;9.57;82.91
60246;BME280;46107;53.356;-1.524;2023-03-29T08:35:02;98045.49;;;9.87;82.63
60246;BME280;46107;53.356;-1.524;2023-03-29T08:37:30;98048.81;;;9.28;84.76
60246;BME280;46107;53.356;-1.524;2023-03-29T08:39:58;98039.60;;;8.96;85.55
60246;BME280;46107;53.356;-1.524;2023-03-29T08:42:40;98037.54;;;9.19;84.69
60246;BME280;46107;53.356;-1.524;2023-03-29T08:45:17;98030.59;;;10.01;81.78
60246;BME280;46107;53.356;-1.524;2023-03-29T08:47:51;98030.20;;;9.50;83.94
60246;BME280;46107;53.356;-1.524;2023-03-29T08:50:24;98026.23;;;9.22;84.73
60246;BME280;46107;53.356;-1.524;2023-03-29T08:52:56;98025.20;;;9.42;84.83
60246;BME280;46107;53.356;-1.524;2023-03-29T08:55:29;98028.87;;;9.25;84.78
60246;BME280;46107;53.356;-1.524;2023-03-29T08:57:59;98026.18;;;9.93;83.63
60246;BME280;46107;53.356;-1.524;2023-03-29T09:00:36;98023.92;;;10.57;80.50
60246;BME280;46107;53.356;-1.524;2023-03-29T09:03:14;98010.76;;;10.51;79.88
60246;BME280;46107;53.356;-1.524;2023-03-29T09:05:47;98000.62;;;9.87;81.22
60246;BME280;46107;53.356;-1.524;2023-03-29T09:08:16;98015.16;;;9.94;80.23
60246;BME280;46107;53.356;-1.524;2023-03-29T09:10:49;98007.59;;;10.34;80.35
60246;BME280;46107;53.356;-1.524;2023-03-29T09:13:31;98004.93;;;9.40;82.83
60246;BME280;46107;53.356;-1.524;2023-03-29T09:16:06;97985.68;;;9.33;83.16
60246;BME280;46107;53.356;-1.524;2023-03-29T09:18:47;97971.62;;;9.89;81.87
60246;BME280;46107;53.356;-1.524;2023-03-29T09:21:23;97970.84;;;10.42;79.83
60246;BME280;46107;53.356;-1.524;2023-03-29T09:24:02;97971.56;;;10.46;79.59
60246;BME280;46107;53.356;-1.524;2023-03-29T09:26:37;97966.95;;;9.16;83.37
60246;BME280;46107;53.356;-1.524;2023-03-29T09:29:16;97954.66;;;9.94;80.54
60246;BME280;46107;53.356;-1.524;2023-03-29T09:31:51;97953.53;;;10.02;80.48
60246;BME280;46107;53.356;-1.524;2023-03-29T09:34:23;97959.67;;;9.77;81.70
60246;BME280;46107;53.356;-1.524;2023-03-29T09:37:00;97964.57;;;9.90;80.30
60246;BME280;46107;53.356;-1.524;2023-03-29T09:39:29;97955.14;;;9.19;83.61
60246;BME280;46107;53.356;-1.524;2023-03-29T09:41:59;97947.97;;;9.71;82.79
60246;BME280;46107;53.356;-1.524;2023-03-29T09:44:32;97950.93;;;9.92;81.20
60246;BME280;46107;53.356;-1.524;2023-03-29T09:47:07;97947.70;;;9.04;84.05
60246;BME280;46107;53.356;-1.524;2023-03-29T09:49:43;97939.03;;;10.09;81.48
60246;BME280;46107;53.356;-1.524;2023-03-29T09:52:14;97933.55;;;10.28;81.84
60246;BME280;46107;53.356;-1.524;2023-03-29T09:54:43;97935.03;;;9.95;81.76
60246;BME280;46107;53.356;-1.524;2023-03-29T09:57:12;97934.41;;;9.93;80.63
60246;BME280;46107;53.356;-1.524;2023-03-29T09:59:42;97931.75;;;9.64;82.96
60246;BME280;46107;53.356;-1.524;2023-03-29T10:02:11;97938.57;;;9.81;82.17
60246;BME280;46107;53.356;-1.524;2023-03-29T10:04:40;97935.01;;;9.53;84.52
60246;BME280;46107;53.356;-1.524;2023-03-29T10:07:08;97937.95;;;10.03;82.37
60246;BME280;46107;53.356;-1.524;2023-03-29T10:09:43;97940.52;;;9.66;83.64
60246;BME280;46107;53.356;-1.524;2023-03-29T10:12:12;97938.10;;;10.06;82.71
60246;BME280;46107;53.356;-1.524;2023-03-29T10:14:44;97929.95;;;9.79;83.05
60246;BME280;46107;53.356;-1.524;2023-03-29T10:17:17;97924.47;;;9.60;85.19
60246;BME280;46107;53.356;-1.524;2023-03-29T10:19:49;97925.49;;;9.72;84.40
60246;BME280;46107;53.356;-1.524;2023-03-29T10:22:23;97916.44;;;9.59;85.76
60246;BME280;46107;53.356;-1.524;2023-03-29T10:24:53;97914.20;;;9.46;86.86
60246;BME280;46107;53.356;-1.524;2023-03-29T10:27:23;97914.66;;;9.95;86.28
60246;BME280;46107;53.356;-1.524;2023-03-29T10:29:54;97908.94;;;9.00;88.18
60246;BME280;46107;53.356;-1.524;2023-03-29T10:32:29;97907.41;;;8.87;91.30
60246;BME280;46107;53.356;-1.524;2023-03-29T10:35:04;97906.65;;;8.85;91.45
60246;BME280;46107;53.356;-1.524;2023-03-29T10:37:33;97901.98;;;8.56;94.06
60246;BME280;46107;53.356;-1.524;2023-03-29T10:40:00;97895.06;;;8.64;92.76
60246;BME280;46107;53.356;-1.524;2023-03-29T10:42:28;97885.75;;;9.42;89.57
60246;BME280;46107;53.356;-1.524;2023-03-29T10:44:58;97889.58;;;9.03;93.21
60246;BME280;46107;53.356;-1.524;2023-03-29T10:47:30;97887.09;;;8.87;92.96
60246;BME280;46107;53.356;-1.524;2023-03-29T10:49:58;97878.97;;;9.16;92.44
60246;BME280;46107;53.356;-1.524;2023-03-29T10:52:27;97880.85;;;8.76;93.33
60246;BME280;46107;53.356;-1.524;2023-03-29T10:54:56;97876.52;;;8.88;91.61
60246;BME280;46107;53.356;-1.524;2023-03-29T10:57:29;97870.11;;;9.36;89.34
60246;BME280;46107;53.356;-1.524;2023-03-29T11:00:12;97872.77;;;8.92;93.25
60246;BME280;46107;53.356;-1.524;2023-03-29T11:02:58;97866.84;;;9.61;90.29
60246;BME280;46107;53.356;-1.524;2023-03-29T11:05:40;97870.07;;;8.72;93.34
60246;BME280;46107;53.356;-1.524;2023-03-29T11:08:24;97864.55;;;9.67;88.04
60246;BME280;46107;53.356;-1.524;2023-03-29T11:11:01;97860.75;;;9.52;87.44
60246;BME280;46107;53.356;-1.524;2023-03-29T11:13:39;97863.57;;;9.82;87.76
60246;BME280;46107;53.356;-1.524;2023-03-29T11:16:19;97857.09;;;9.97;85.46
60246;BME280;46107;53.356;-1.524;2023-03-29T11:19:36;97856.37;;;9.76;86.60
60246;BME280;46107;53.356;-1.524;2023-03-29T11:22:10;97847.57;;;9.91;86.44
60246;BME280;46107;53.356;-1.524;2023-03-29T11:24:51;97842.61;;;8.63;89.58
60246;BME280;46107;53.356;-1.524;2023-03-29T11:27:32;97840.65;;;9.96;86.59
60246;BME280;46107;53.356;-1.524;2023-03-29T11:30:07;97834.71;;;10.01;86.06
60246;BME280;46107;53.356;-1.524;2023-03-29T11:32:41;97829.23;;;10.27;85.43
60246;BME280;46107;53.356;-1.524;2023-03-29T11:35:30;97821.75;;;10.21;85.52
60246;BME280;46107;53.356;-1.524;2023-03-29T11:38:08;97806.71;;;10.52;84.75
60246;BME280;46107;53.356;-1.524;2023-03-29T11:40:49;97815.62;;;9.76;88.09
60246;BME280;46107;53.356;-1.524;2023-03-29T11:43:23;97804.18;;;10.61;85.33
60246;BME280;46107;53.356;-1.524;2023-03-29T11:45:57;97800.57;;;10.90;83.28
60246;BME280;46107;53.356;-1.524;2023-03-29T11:48:30;97797.32;;;9.67;86.85
60246;BME280;46107;53.356;-1.524;2023-03-29T11:51:03;97794.86;;;10.33;85.53
60246;BME280;46107;53.356;-1.524;2023-03-29T11:53:39;97797.95;;;10.38;88.63
60246;BME280;46107;53.356;-1.524;2023-03-29T11:56:14;97795.23;;;9.57;92.24
60246;BME280;46107;53.356;-1.524;2023-03-29T11:58:49;97793.41;;;9.77;91.81
60246;BME280;46107;53.356;-1.524;2023-03-29T12:01:27;97792.00;;;9.33;94.15
60246;BME280;46107;53.356;-1.524;2023-03-29T12:03:59;97782.27;;;10.24;89.93
60246;BME280;46107;53.356;-1.524;2023-03-29T12:06:32;97782.20;;;9.40;93.47
60246;BME280;46107;53.356;-1.524;2023-03-29T12:09:06;97784.73;;;9.85;92.94
60246;BME280;46107;53.356;-1.524;2023-03-29T12:11:39;97776.98;;;10.82;90.07
60246;BME280;46107;53.356;-1.524;2023-03-29T12:14:13;97763.52;;;10.69;91.82
60246;BME280;46107;53.356;-1.524;2023-03-29T12:16:44;97758.51;;;10.69;90.13
60246;BME280;46107;53.356;-1.524;2023-03-29T12:19:19;97760.00;;;11.13;89.33
60246;BME280;46107;53.356;-1.524;2023-03-29T12:21:48;97759.24;;;10.79;90.14
60246;BME280;46107;53.356;-1.524;2023-03-29T12:24:18;97749.19;;;11.15;88.65
60246;BME280;46107;53.356;-1.524;2023-03-29T12:27:00;97751.13;;;10.60;91.75
60246;BME280;46107;53.356;-1.524;2023-03-29T12:29:42;97747.08;;;10.74;91.60
60246;BME280;46107;53.356;-1.524;2023-03-29T12:32:27;97743.54;;;10.75;90.05
60246;BME280;46107;53.356;-1.524;2023-03-29T12:35:17;97739.60;;;10.97;88.64
60246;BME280;46107;53.356;-1.524;2023-03-29T12:37:55;97737.68;;;10.94;89.40
60246;BME280;46107;53.356;-1.524;2023-03-29T12:40:27;97740.71;;;11.36;88.86
60246;BME280;46107;53.356;-1.524;2023-03-29T12:43:04;97747.89;;;10.92;92.30
60246;BME280;46107;53.356;-1.524;2023-03-29T12:45:36;97754.84;;;10.77;91.68
60246;BME280;46107;53.356;-1.524;2023-03-29T12:48:05;97749.90;;;10.05;93.07
60246;BME280;46107;53.356;-1.524;2023-03-29T12:50:35;97737.89;;;9.81;96.29
60246;BME280;46107;53.356;-1.524;2023-03-29T12:53:14;97727.76;;;9.71;95.37
60246;BME280;46107;53.356;-1.524;2023-03-29T12:55:49;97726.71;;;10.16;93.01
60246;BME280;46107;53.356;-1.524;2023-03-29T12:58:52;97724.63;;;10.11;92.60
60246;BME280;46107;53.356;-1.524;2023-03-29T13:01:24;97710.41;;;9.77;95.44
60246;BME280;46107;53.356;-1.524;2023-03-29T13:04:08;97695.12;;;10.23;94.91
60246;BME280;46107;53.356;-1.524;2023-03-29T13:06:54;97691.56;;;10.07;94.78
60246;BME280;46107;53.356;-1.524;2023-03-29T13:09:27;97689.80;;;10.05;95.51
60246;BME280;46107;53.356;-1.524;2023-03-29T13:12:02;97690.83;;;10.53;93.40
60246;BME280;46107;53.356;-1.524;2023-03-29T13:14:33;97675.33;;;10.60;93.03
60246;BME280;46107;53.356;-1.524;2023-03-29T13:17:02;97671.89;;;10.06;94.60